sensor_id;sensor_type;location;lat;lon;timestamp;P1;durP1;ratioP1;P2;durP2;ratioP2
13171;SDS011;6651;53.200;10.432;2022-12-17T00:00:21;34.67;;;27.20;;
13171;SDS011;6651;53.200;10.432;2022-12-17T00:03:07;35.10;;;27.55;;
13171;SDS011;6651;53.200;10.432;2022-12-17T00:05:53;33.92;;;27.83;;
13171;SDS011;6651;53.200;10.432;2022-12-17T00:08:37;33.40;;;25.80;;
13171;SDS011;6651;53.200;10.432;2022-12-17T00:11:21;34.58;;;27.15;;
13171;SDS011;6651;53.200;10.432;2022-12-17T00:14:05;34.53;;;26.45;;
13171;SDS011;6651;53.200;10.432;2022-12-17T00:16:52;34.10;;;26.85;;
13171;SDS011;6651;53.200;10.432;2022-12-17T00:19:36;34.45;;;26.83;;
13171;SDS011;6651;53.200;10.432;2022-12-17T00:22:20;35.03;;;26.88;;
13171;SDS011;6651;53.200;10.432;2022-12-17T00:25:05;36.72;;;27.50;;
13171;SDS011;6651;53.200;10.432;2022-12-17T00:27:49;33.83;;;26.73;;
13171;SDS011;6651;53.200;10.432;2022-12-17T00:30:33;34.38;;;26.75;;
13171;SDS011;6651;53.200;10.432;2022-12-17T00:33:17;33.78;;;26.20;;
13171;SDS011;6651;53.200;10.432;2022-12-17T00:36:02;35.20;;;27.42;;
13171;SDS011;6651;53.200;10.432;2022-12-17T00:38:46;32.22;;;27.23;;
13171;SDS011;6651;53.200;10.432;2022-12-17T00:41:30;35.33;;;27.00;;
13171;SDS011;6651;53.200;10.432;2022-12-17T00:44:14;33.80;;;27.20;;
13171;SDS011;6651;53.200;10.432;2022-12-17T00:46:58;34.85;;;27.10;;
13171;SDS011;6651;53.200;10.432;2022-12-17T00:49:42;36.13;;;29.08;;
13171;SDS011;6651;53.200;10.432;2022-12-17T00:52:26;34.38;;;27.17;;
13171;SDS011;6651;53.200;10.432;2022-12-17T00:55:11;33.75;;;26.48;;
13171;SDS011;6651;53.200;10.432;2022-12-17T00:57:55;34.28;;;27.13;;
13171;SDS011;6651;53.200;10.432;2022-12-17T01:00:40;31.80;;;26.15;;
13171;SDS011;6651;53.200;10.432;2022-12-17T01:03:25;36.97;;;27.35;;
13171;SDS011;6651;53.200;10.432;2022-12-17T01:06:10;34.58;;;26.17;;
13171;SDS011;6651;53.200;10.432;2022-12-17T01:08:54;34.60;;;27.33;;
13171;SDS011;6651;53.200;10.432;2022-12-17T01:11:39;33.85;;;27.67;;
13171;SDS011;6651;53.200;10.432;2022-12-17T01:14:23;33.08;;;26.65;;
13171;SDS011;6651;53.200;10.432;2022-12-17T01:17:08;34.38;;;26.13;;
13171;SDS011;6651;53.200;10.432;2022-12-17T01:19:52;32.08;;;26.92;;
13171;SDS011;6651;53.200;10.432;2022-12-17T01:22:36;33.47;;;26.77;;
13171;SDS011;6651;53.200;10.432;2022-12-17T01:25:20;32.40;;;25.88;;
13171;SDS011;6651;53.200;10.432;2022-12-17T01:28:04;35.22;;;26.40;;
13171;SDS011;6651;53.200;10.432;2022-12-17T01:30:49;34.58;;;27.98;;
13171;SDS011;6651;53.200;10.432;2022-12-17T01:33:33;33.47;;;26.65;;
13171;SDS011;6651;53.200;10.432;2022-12-17T01:36:17;30.55;;;24.92;;
13171;SDS011;6651;53.200;10.432;2022-12-17T01:39:01;32.95;;;26.52;;
13171;SDS011;6651;53.200;10.432;2022-12-17T01:41:45;32.33;;;24.88;;
13171;SDS011;6651;53.200;10.432;2022-12-17T01:44:47;33.53;;;26.40;;
13171;SDS011;6651;53.200;10.432;2022-12-17T01:47:48;32.65;;;25.08;;
13171;SDS011;6651;53.200;10.432;2022-12-17T01:50:38;30.65;;;24.83;;
13171;SDS011;6651;53.200;10.432;2022-12-17T01:53:50;31.83;;;24.25;;
13171;SDS011;6651;53.200;10.432;2022-12-17T01:56:36;33.13;;;25.35;;
13171;SDS011;6651;53.200;10.432;2022-12-17T01:59:24;34.92;;;24.60;;
13171;SDS011;6651;53.200;10.432;2022-12-17T02:02:40;31.30;;;24.60;;
13171;SDS011;6651;53.200;10.432;2022-12-17T02:05:29;29.20;;;23.83;;
13171;SDS011;6651;53.200;10.432;2022-12-17T02:08:43;28.63;;;23.17;;
13171;SDS011;6651;53.200;10.432;2022-12-17T02:14:43;30.55;;;24.60;;
13171;SDS011;6651;53.200;10.432;2022-12-17T02:17:37;32.05;;;24.90;;
13171;SDS011;6651;53.200;10.432;2022-12-17T02:20:30;31.40;;;25.33;;
13171;SDS011;6651;53.200;10.432;2022-12-17T02:26:41;32.20;;;25.50;;
13171;SDS011;6651;53.200;10.432;2022-12-17T02:29:27;33.83;;;26.05;;
13171;SDS011;6651;53.200;10.432;2022-12-17T02:32:25;34.47;;;26.00;;
13171;SDS011;6651;53.200;10.432;2022-12-17T02:35:22;31.63;;;24.83;;
13171;SDS011;6651;53.200;10.432;2022-12-17T02:38:16;30.48;;;24.70;;
13171;SDS011;6651;53.200;10.432;2022-12-17T02:41:00;34.00;;;25.50;;
13171;SDS011;6651;53.200;10.432;2022-12-17T02:43:47;29.88;;;23.55;;
13171;SDS011;6651;53.200;10.432;2022-12-17T02:46:32;30.73;;;25.60;;
13171;SDS011;6651;53.200;10.432;2022-12-17T02:49:17;33.53;;;25.52;;
13171;SDS011;6651;53.200;10.432;2022-12-17T02:52:04;31.65;;;25.15;;
13171;SDS011;6651;53.200;10.432;2022-12-17T02:54:48;30.70;;;24.92;;
13171;SDS011;6651;53.200;10.432;2022-12-17T02:57:49;31.63;;;26.40;;
13171;SDS011;6651;53.200;10.432;2022-12-17T03:00:33;35.25;;;26.92;;
13171;SDS011;6651;53.200;10.432;2022-12-17T03:03:17;34.38;;;27.15;;
13171;SDS011;6651;53.200;10.432;2022-12-17T03:06:01;34.22;;;26.60;;
13171;SDS011;6651;53.200;10.432;2022-12-17T03:08:45;34.90;;;27.23;;
13171;SDS011;6651;53.200;10.432;2022-12-17T03:11:29;32.60;;;25.70;;
13171;SDS011;6651;53.200;10.432;2022-12-17T03:14:14;35.45;;;27.00;;
13171;SDS011;6651;53.200;10.432;2022-12-17T03:16:58;36.47;;;26.50;;
13171;SDS011;6651;53.200;10.432;2022-12-17T03:19:43;33.42;;;26.08;;
13171;SDS011;6651;53.200;10.432;2022-12-17T03:22:27;33.03;;;25.90;;
13171;SDS011;6651;53.200;10.432;2022-12-17T03:25:11;33.65;;;26.75;;
13171;SDS011;6651;53.200;10.432;2022-12-17T03:28:01;31.73;;;25.77;;
13171;SDS011;6651;53.200;10.432;2022-12-17T03:30:46;34.92;;;27.02;;
13171;SDS011;6651;53.200;10.432;2022-12-17T03:33:30;33.22;;;25.48;;
13171;SDS011;6651;53.200;10.432;2022-12-17T03:36:14;33.25;;;26.00;;
13171;SDS011;6651;53.200;10.432;2022-12-17T03:38:58;33.08;;;27.27;;
13171;SDS011;6651;53.200;10.432;2022-12-17T03:41:42;33.33;;;26.45;;
13171;SDS011;6651;53.200;10.432;2022-12-17T03:44:27;32.88;;;26.38;;
13171;SDS011;6651;53.200;10.432;2022-12-17T03:47:12;33.97;;;27.13;;
13171;SDS011;6651;53.200;10.432;2022-12-17T03:49:56;33.13;;;26.85;;
13171;SDS011;6651;53.200;10.432;2022-12-17T03:52:40;36.38;;;28.40;;
13171;SDS011;6651;53.200;10.432;2022-12-17T03:55:24;34.67;;;27.70;;
13171;SDS011;6651;53.200;10.432;2022-12-17T03:58:08;33.47;;;26.90;;
13171;SDS011;6651;53.200;10.432;2022-12-17T04:00:52;35.22;;;26.95;;
13171;SDS011;6651;53.200;10.432;2022-12-17T04:03:35;33.60;;;27.02;;
13171;SDS011;6651;53.200;10.432;2022-12-17T04:06:19;35.50;;;28.02;;
13171;SDS011;6651;53.200;10.432;2022-12-17T04:09:04;38.70;;;29.02;;
13171;SDS011;6651;53.200;10.432;2022-12-17T04:11:48;36.90;;;27.70;;
13171;SDS011;6651;53.200;10.432;2022-12-17T04:14:32;38.97;;;29.08;;
13171;SDS011;6651;53.200;10.432;2022-12-17T04:17:16;37.25;;;28.30;;
13171;SDS011;6651;53.200;10.432;2022-12-17T04:20:00;35.08;;;28.13;;
13171;SDS011;6651;53.200;10.432;2022-12-17T04:22:44;36.58;;;28.10;;
13171;SDS011;6651;53.200;10.432;2022-12-17T04:25:28;37.05;;;28.20;;
13171;SDS011;6651;53.200;10.432;2022-12-17T04:28:12;36.97;;;28.20;;
13171;SDS011;6651;53.200;10.432;2022-12-17T04:30:58;36.45;;;28.60;;
13171;SDS011;6651;53.200;10.432;2022-12-17T04:33:42;38.67;;;29.25;;
13171;SDS011;6651;53.200;10.432;2022-12-17T04:36:26;37.63;;;28.67;;
13171;SDS011;6651;53.200;10.432;2022-12-17T04:39:11;35.35;;;27.63;;
13171;SDS011;6651;53.200;10.432;2022-12-17T04:41:54;39.33;;;28.98;;
13171;SDS011;6651;53.200;10.432;2022-12-17T04:44:39;35.00;;;27.27;;
13171;SDS011;6651;53.200;10.432;2022-12-17T04:47:26;36.28;;;28.58;;
13171;SDS011;6651;53.200;10.432;2022-12-17T04:50:10;36.10;;;28.80;;
13171;SDS011;6651;53.200;10.432;2022-12-17T04:53:00;33.92;;;28.27;;
13171;SDS011;6651;53.200;10.432;2022-12-17T04:55:46;35.28;;;27.30;;
13171;SDS011;6651;53.200;10.432;2022-12-17T04:58:31;33.70;;;27.08;;
13171;SDS011;6651;53.200;10.432;2022-12-17T05:01:15;36.53;;;27.58;;
13171;SDS011;6651;53.200;10.432;2022-12-17T05:03:59;35.47;;;26.48;;
13171;SDS011;6651;53.200;10.432;2022-12-17T05:06:51;33.20;;;25.60;;
13171;SDS011;6651;53.200;10.432;2022-12-17T05:09:35;34.42;;;27.30;;
13171;SDS011;6651;53.200;10.432;2022-12-17T05:12:19;36.47;;;28.50;;
13171;SDS011;6651;53.200;10.432;2022-12-17T05:15:17;34.42;;;26.60;;
13171;SDS011;6651;53.200;10.432;2022-12-17T05:18:11;32.38;;;25.38;;
13171;SDS011;6651;53.200;10.432;2022-12-17T05:20:56;33.60;;;25.98;;
13171;SDS011;6651;53.200;10.432;2022-12-17T05:23:40;31.98;;;24.90;;
13171;SDS011;6651;53.200;10.432;2022-12-17T05:26:25;30.90;;;22.80;;
13171;SDS011;6651;53.200;10.432;2022-12-17T05:29:11;34.05;;;26.80;;
13171;SDS011;6651;53.200;10.432;2022-12-17T05:31:55;34.97;;;26.40;;
13171;SDS011;6651;53.200;10.432;2022-12-17T05:34:40;31.27;;;24.70;;
13171;SDS011;6651;53.200;10.432;2022-12-17T05:37:23;32.20;;;25.15;;
13171;SDS011;6651;53.200;10.432;2022-12-17T05:40:08;31.08;;;24.02;;
13171;SDS011;6651;53.200;10.432;2022-12-17T05:42:56;32.55;;;23.58;;
13171;SDS011;6651;53.200;10.432;2022-12-17T05:45:42;31.95;;;24.00;;
13171;SDS011;6651;53.200;10.432;2022-12-17T05:48:27;32.78;;;25.20;;
13171;SDS011;6651;53.200;10.432;2022-12-17T05:51:12;32.10;;;24.55;;
13171;SDS011;6651;53.200;10.432;2022-12-17T05:53:56;32.15;;;23.90;;
13171;SDS011;6651;53.200;10.432;2022-12-17T05:56:40;27.83;;;23.17;;
13171;SDS011;6651;53.200;10.432;2022-12-17T05:59:24;31.73;;;22.17;;
13171;SDS011;6651;53.200;10.432;2022-12-17T06:02:09;29.67;;;23.00;;
13171;SDS011;6651;53.200;10.432;2022-12-17T06:04:52;27.60;;;22.90;;
13171;SDS011;6651;53.200;10.432;2022-12-17T06:07:37;28.80;;;22.92;;
13171;SDS011;6651;53.200;10.432;2022-12-17T06:10:21;27.02;;;21.75;;
13171;SDS011;6651;53.200;10.432;2022-12-17T06:13:05;29.10;;;22.38;;
13171;SDS011;6651;53.200;10.432;2022-12-17T06:15:49;28.25;;;22.00;;
13171;SDS011;6651;53.200;10.432;2022-12-17T06:18:34;29.23;;;22.33;;
13171;SDS011;6651;53.200;10.432;2022-12-17T06:21:19;29.52;;;22.17;;
13171;SDS011;6651;53.200;10.432;2022-12-17T06:24:04;30.77;;;23.27;;
13171;SDS011;6651;53.200;10.432;2022-12-17T06:26:49;29.30;;;22.15;;
13171;SDS011;6651;53.200;10.432;2022-12-17T06:29:33;29.70;;;23.63;;
13171;SDS011;6651;53.200;10.432;2022-12-17T06:32:17;31.52;;;22.90;;
13171;SDS011;6651;53.200;10.432;2022-12-17T06:35:01;28.80;;;22.67;;
13171;SDS011;6651;53.200;10.432;2022-12-17T06:37:45;29.67;;;22.67;;
13171;SDS011;6651;53.200;10.432;2022-12-17T06:40:29;28.58;;;21.85;;
13171;SDS011;6651;53.200;10.432;2022-12-17T06:43:13;27.23;;;21.88;;
13171;SDS011;6651;53.200;10.432;2022-12-17T06:45:57;29.63;;;21.95;;
13171;SDS011;6651;53.200;10.432;2022-12-17T06:48:41;28.33;;;21.35;;
13171;SDS011;6651;53.200;10.432;2022-12-17T06:51:25;29.50;;;22.15;;
13171;SDS011;6651;53.200;10.432;2022-12-17T06:54:10;31.35;;;22.70;;
13171;SDS011;6651;53.200;10.432;2022-12-17T06:56:54;28.08;;;21.23;;
13171;SDS011;6651;53.200;10.432;2022-12-17T06:59:41;27.73;;;20.40;;
13171;SDS011;6651;53.200;10.432;2022-12-17T07:02:25;25.20;;;20.08;;
13171;SDS011;6651;53.200;10.432;2022-12-17T07:05:09;28.02;;;21.58;;
13171;SDS011;6651;53.200;10.432;2022-12-17T07:07:57;27.40;;;20.83;;
13171;SDS011;6651;53.200;10.432;2022-12-17T07:10:42;28.98;;;21.92;;
13171;SDS011;6651;53.200;10.432;2022-12-17T07:13:26;27.60;;;20.67;;
13171;SDS011;6651;53.200;10.432;2022-12-17T07:16:10;26.65;;;20.70;;
13171;SDS011;6651;53.200;10.432;2022-12-17T07:18:54;27.27;;;21.25;;
13171;SDS011;6651;53.200;10.432;2022-12-17T07:21:38;27.27;;;20.15;;
13171;SDS011;6651;53.200;10.432;2022-12-17T07:24:22;28.50;;;20.60;;
13171;SDS011;6651;53.200;10.432;2022-12-17T07:27:06;27.10;;;20.58;;
13171;SDS011;6651;53.200;10.432;2022-12-17T07:29:50;26.88;;;19.98;;
13171;SDS011;6651;53.200;10.432;2022-12-17T07:32:34;27.38;;;20.63;;
13171;SDS011;6651;53.200;10.432;2022-12-17T07:35:18;25.23;;;20.25;;
13171;SDS011;6651;53.200;10.432;2022-12-17T07:38:03;27.23;;;20.23;;
13171;SDS011;6651;53.200;10.432;2022-12-17T07:40:47;28.83;;;20.48;;
13171;SDS011;6651;53.200;10.432;2022-12-17T07:43:31;25.60;;;20.00;;
13171;SDS011;6651;53.200;10.432;2022-12-17T07:46:15;28.27;;;21.27;;
13171;SDS011;6651;53.200;10.432;2022-12-17T07:49:00;29.65;;;21.83;;
13171;SDS011;6651;53.200;10.432;2022-12-17T07:51:44;29.83;;;21.23;;
13171;SDS011;6651;53.200;10.432;2022-12-17T07:54:28;26.25;;;20.05;;
13171;SDS011;6651;53.200;10.432;2022-12-17T07:57:12;31.27;;;20.95;;
13171;SDS011;6651;53.200;10.432;2022-12-17T07:59:56;28.13;;;21.45;;
13171;SDS011;6651;53.200;10.432;2022-12-17T08:02:40;28.80;;;20.83;;
13171;SDS011;6651;53.200;10.432;2022-12-17T08:05:24;27.80;;;20.52;;
13171;SDS011;6651;53.200;10.432;2022-12-17T08:08:08;28.83;;;21.20;;
13171;SDS011;6651;53.200;10.432;2022-12-17T08:10:54;28.02;;;20.63;;
13171;SDS011;6651;53.200;10.432;2022-12-17T08:13:38;29.42;;;22.00;;
13171;SDS011;6651;53.200;10.432;2022-12-17T08:16:22;30.65;;;22.17;;
13171;SDS011;6651;53.200;10.432;2022-12-17T08:19:06;28.88;;;21.55;;
13171;SDS011;6651;53.200;10.432;2022-12-17T08:21:50;30.30;;;21.33;;
13171;SDS011;6651;53.200;10.432;2022-12-17T08:24:34;28.55;;;21.23;;
13171;SDS011;6651;53.200;10.432;2022-12-17T08:27:18;28.23;;;21.30;;
13171;SDS011;6651;53.200;10.432;2022-12-17T08:30:03;31.13;;;21.27;;
13171;SDS011;6651;53.200;10.432;2022-12-17T08:32:48;32.15;;;22.52;;
13171;SDS011;6651;53.200;10.432;2022-12-17T08:35:33;26.25;;;21.05;;
13171;SDS011;6651;53.200;10.432;2022-12-17T08:38:17;27.00;;;21.35;;
13171;SDS011;6651;53.200;10.432;2022-12-17T08:41:01;30.10;;;22.35;;
13171;SDS011;6651;53.200;10.432;2022-12-17T08:43:46;31.75;;;22.92;;
13171;SDS011;6651;53.200;10.432;2022-12-17T08:46:30;31.65;;;23.33;;
13171;SDS011;6651;53.200;10.432;2022-12-17T08:49:28;27.85;;;21.75;;
13171;SDS011;6651;53.200;10.432;2022-12-17T08:52:12;32.20;;;23.77;;
13171;SDS011;6651;53.200;10.432;2022-12-17T08:54:56;33.60;;;23.73;;
13171;SDS011;6651;53.200;10.432;2022-12-17T08:57:40;31.60;;;22.90;;
13171;SDS011;6651;53.200;10.432;2022-12-17T09:00:24;31.08;;;23.65;;
13171;SDS011;6651;53.200;10.432;2022-12-17T09:03:08;29.95;;;22.63;;
13171;SDS011;6651;53.200;10.432;2022-12-17T09:05:52;31.90;;;23.83;;
13171;SDS011;6651;53.200;10.432;2022-12-17T09:08:36;30.92;;;23.95;;
13171;SDS011;6651;53.200;10.432;2022-12-17T09:11:21;31.55;;;23.52;;
13171;SDS011;6651;53.200;10.432;2022-12-17T09:14:05;32.47;;;24.58;;
13171;SDS011;6651;53.200;10.432;2022-12-17T09:16:49;33.38;;;25.77;;
13171;SDS011;6651;53.200;10.432;2022-12-17T09:19:33;30.52;;;24.88;;
13171;SDS011;6651;53.200;10.432;2022-12-17T09:22:17;30.85;;;22.80;;
13171;SDS011;6651;53.200;10.432;2022-12-17T09:25:01;29.70;;;22.13;;
13171;SDS011;6651;53.200;10.432;2022-12-17T09:27:46;28.15;;;21.80;;
13171;SDS011;6651;53.200;10.432;2022-12-17T09:30:30;28.38;;;21.60;;
13171;SDS011;6651;53.200;10.432;2022-12-17T09:33:31;29.42;;;22.63;;
13171;SDS011;6651;53.200;10.432;2022-12-17T09:36:15;31.17;;;23.88;;
13171;SDS011;6651;53.200;10.432;2022-12-17T09:39:00;31.42;;;25.55;;
13171;SDS011;6651;53.200;10.432;2022-12-17T09:44:40;36.88;;;25.90;;
13171;SDS011;6651;53.200;10.432;2022-12-17T09:50:26;34.72;;;26.55;;
13171;SDS011;6651;53.200;10.432;2022-12-17T09:53:25;31.38;;;25.08;;
13171;SDS011;6651;53.200;10.432;2022-12-17T09:56:17;27.30;;;23.15;;
13171;SDS011;6651;53.200;10.432;2022-12-17T09:59:04;29.02;;;24.10;;
13171;SDS011;6651;53.200;10.432;2022-12-17T10:01:48;30.58;;;23.23;;
13171;SDS011;6651;53.200;10.432;2022-12-17T10:04:33;29.33;;;23.00;;
13171;SDS011;6651;53.200;10.432;2022-12-17T10:07:31;28.95;;;24.20;;
13171;SDS011;6651;53.200;10.432;2022-12-17T10:10:19;29.42;;;23.38;;
13171;SDS011;6651;53.200;10.432;2022-12-17T10:13:17;30.27;;;23.40;;
13171;SDS011;6651;53.200;10.432;2022-12-17T10:22:13;33.90;;;25.13;;
13171;SDS011;6651;53.200;10.432;2022-12-17T10:25:18;29.55;;;24.00;;
13171;SDS011;6651;53.200;10.432;2022-12-17T10:28:04;29.75;;;23.80;;
13171;SDS011;6651;53.200;10.432;2022-12-17T10:30:49;32.08;;;24.65;;
13171;SDS011;6651;53.200;10.432;2022-12-17T10:33:37;30.40;;;23.38;;
13171;SDS011;6651;53.200;10.432;2022-12-17T10:36:23;29.33;;;23.23;;
13171;SDS011;6651;53.200;10.432;2022-12-17T10:39:19;28.30;;;22.58;;
13171;SDS011;6651;53.200;10.432;2022-12-17T10:42:28;27.23;;;22.65;;
13171;SDS011;6651;53.200;10.432;2022-12-17T10:45:24;28.75;;;22.65;;
13171;SDS011;6651;53.200;10.432;2022-12-17T10:48:20;29.33;;;23.58;;
13171;SDS011;6651;53.200;10.432;2022-12-17T10:51:13;30.95;;;24.45;;
13171;SDS011;6651;53.200;10.432;2022-12-17T10:54:00;30.52;;;23.15;;
13171;SDS011;6651;53.200;10.432;2022-12-17T10:56:51;31.00;;;23.95;;
13171;SDS011;6651;53.200;10.432;2022-12-17T10:59:37;30.17;;;23.40;;
13171;SDS011;6651;53.200;10.432;2022-12-17T11:02:27;26.98;;;22.45;;
13171;SDS011;6651;53.200;10.432;2022-12-17T11:05:34;27.10;;;21.13;;
13171;SDS011;6651;53.200;10.432;2022-12-17T11:08:21;25.50;;;21.90;;
13171;SDS011;6651;53.200;10.432;2022-12-17T11:11:06;27.23;;;22.77;;
13171;SDS011;6651;53.200;10.432;2022-12-17T11:13:55;30.25;;;23.10;;
13171;SDS011;6651;53.200;10.432;2022-12-17T11:16:54;27.80;;;21.83;;
13171;SDS011;6651;53.200;10.432;2022-12-17T11:22:46;27.77;;;22.80;;
13171;SDS011;6651;53.200;10.432;2022-12-17T11:28:40;26.02;;;20.27;;
13171;SDS011;6651;53.200;10.432;2022-12-17T11:38:31;24.50;;;20.17;;
13171;SDS011;6651;53.200;10.432;2022-12-17T11:42:07;21.92;;;18.00;;
13171;SDS011;6651;53.200;10.432;2022-12-17T11:44:58;24.42;;;18.83;;
13171;SDS011;6651;53.200;10.432;2022-12-17T11:48:08;23.65;;;17.88;;
13171;SDS011;6651;53.200;10.432;2022-12-17T11:51:07;22.13;;;17.98;;
13171;SDS011;6651;53.200;10.432;2022-12-17T12:06:27;20.23;;;15.80;;
13171;SDS011;6651;53.200;10.432;2022-12-17T12:21:58;18.17;;;14.10;;
13171;SDS011;6651;53.200;10.432;2022-12-17T12:28:02;19.00;;;14.20;;
13171;SDS011;6651;53.200;10.432;2022-12-17T12:31:05;16.75;;;13.68;;
13171;SDS011;6651;53.200;10.432;2022-12-17T12:34:10;16.23;;;12.98;;
13171;SDS011;6651;53.200;10.432;2022-12-17T12:37:04;20.08;;;13.07;;
13171;SDS011;6651;53.200;10.432;2022-12-17T12:42:36;17.98;;;14.13;;
13171;SDS011;6651;53.200;10.432;2022-12-17T12:48:29;15.73;;;13.50;;
13171;SDS011;6651;53.200;10.432;2022-12-17T12:51:36;16.83;;;13.57;;
13171;SDS011;6651;53.200;10.432;2022-12-17T12:54:26;17.58;;;13.93;;
13171;SDS011;6651;53.200;10.432;2022-12-17T13:00:24;16.98;;;13.70;;
13171;SDS011;6651;53.200;10.432;2022-12-17T13:06:09;15.93;;;13.82;;
13171;SDS011;6651;53.200;10.432;2022-12-17T13:08:39;15.70;;;13.30;;
13171;SDS011;6651;53.200;10.432;2022-12-17T13:13:54;16.40;;;13.15;;
13171;SDS011;6651;53.200;10.432;2022-12-17T13:22:10;18.38;;;15.73;;
13171;SDS011;6651;53.200;10.432;2022-12-17T13:24:39;17.08;;;14.38;;
13171;SDS011;6651;53.200;10.432;2022-12-17T13:29:54;17.35;;;15.10;;
13171;SDS011;6651;53.200;10.432;2022-12-17T13:42:58;18.40;;;14.93;;
13171;SDS011;6651;53.200;10.432;2022-12-17T13:45:24;18.83;;;13.48;;
13171;SDS011;6651;53.200;10.432;2022-12-17T13:47:54;18.48;;;14.50;;
13171;SDS011;6651;53.200;10.432;2022-12-17T13:50:23;18.23;;;14.10;;
13171;SDS011;6651;53.200;10.432;2022-12-17T13:52:51;16.77;;;13.90;;
13171;SDS011;6651;53.200;10.432;2022-12-17T13:55:20;16.27;;;13.93;;
13171;SDS011;6651;53.200;10.432;2022-12-17T13:57:48;18.67;;;14.80;;
13171;SDS011;6651;53.200;10.432;2022-12-17T14:00:22;18.00;;;14.60;;
13171;SDS011;6651;53.200;10.432;2022-12-17T14:02:51;17.40;;;14.35;;
13171;SDS011;6651;53.200;10.432;2022-12-17T14:05:23;16.40;;;13.77;;
13171;SDS011;6651;53.200;10.432;2022-12-17T14:07:49;17.25;;;14.15;;
13171;SDS011;6651;53.200;10.432;2022-12-17T14:10:15;22.40;;;15.80;;
13171;SDS011;6651;53.200;10.432;2022-12-17T14:12:42;20.08;;;15.98;;
13171;SDS011;6651;53.200;10.432;2022-12-17T14:15:15;18.83;;;15.55;;
13171;SDS011;6651;53.200;10.432;2022-12-17T14:17:50;18.50;;;15.10;;
13171;SDS011;6651;53.200;10.432;2022-12-17T14:20:19;20.00;;;15.27;;
13171;SDS011;6651;53.200;10.432;2022-12-17T14:23:00;20.08;;;15.75;;
13171;SDS011;6651;53.200;10.432;2022-12-17T14:25:44;17.48;;;15.05;;
13171;SDS011;6651;53.200;10.432;2022-12-17T14:28:30;19.45;;;15.10;;
13171;SDS011;6651;53.200;10.432;2022-12-17T14:31:07;18.55;;;15.48;;
13171;SDS011;6651;53.200;10.432;2022-12-17T14:33:43;19.98;;;15.60;;
13171;SDS011;6651;53.200;10.432;2022-12-17T14:38:53;18.70;;;16.25;;
13171;SDS011;6651;53.200;10.432;2022-12-17T14:41:48;21.42;;;15.85;;
13171;SDS011;6651;53.200;10.432;2022-12-17T14:44:33;20.33;;;16.13;;
13171;SDS011;6651;53.200;10.432;2022-12-17T14:52:40;20.02;;;16.45;;
13171;SDS011;6651;53.200;10.432;2022-12-17T15:01:02;20.35;;;15.27;;
13171;SDS011;6651;53.200;10.432;2022-12-17T15:03:39;19.63;;;15.75;;
13171;SDS011;6651;53.200;10.432;2022-12-17T15:06:18;20.00;;;15.75;;
13171;SDS011;6651;53.200;10.432;2022-12-17T15:08:45;18.90;;;15.82;;
13171;SDS011;6651;53.200;10.432;2022-12-17T15:11:13;21.30;;;17.35;;
13171;SDS011;6651;53.200;10.432;2022-12-17T15:13:40;22.02;;;17.80;;
13171;SDS011;6651;53.200;10.432;2022-12-17T15:16:06;26.00;;;18.40;;
13171;SDS011;6651;53.200;10.432;2022-12-17T15:18:32;25.77;;;19.73;;
13171;SDS011;6651;53.200;10.432;2022-12-17T15:20:58;22.92;;;18.67;;
13171;SDS011;6651;53.200;10.432;2022-12-17T15:23:25;22.48;;;19.20;;
13171;SDS011;6651;53.200;10.432;2022-12-17T15:25:51;23.13;;;18.83;;
13171;SDS011;6651;53.200;10.432;2022-12-17T15:28:18;23.30;;;18.73;;
13171;SDS011;6651;53.200;10.432;2022-12-17T15:30:45;24.88;;;20.40;;
13171;SDS011;6651;53.200;10.432;2022-12-17T15:33:12;23.60;;;18.90;;
13171;SDS011;6651;53.200;10.432;2022-12-17T15:35:38;21.77;;;19.58;;
13171;SDS011;6651;53.200;10.432;2022-12-17T15:38:05;22.60;;;17.85;;
13171;SDS011;6651;53.200;10.432;2022-12-17T15:40:31;18.60;;;16.40;;
13171;SDS011;6651;53.200;10.432;2022-12-17T15:42:57;21.60;;;17.10;;
13171;SDS011;6651;53.200;10.432;2022-12-17T15:45:46;20.33;;;16.88;;
13171;SDS011;6651;53.200;10.432;2022-12-17T15:48:14;20.58;;;16.67;;
13171;SDS011;6651;53.200;10.432;2022-12-17T15:50:41;20.83;;;16.75;;
13171;SDS011;6651;53.200;10.432;2022-12-17T15:53:07;20.25;;;17.83;;
13171;SDS011;6651;53.200;10.432;2022-12-17T15:55:34;21.80;;;18.40;;
13171;SDS011;6651;53.200;10.432;2022-12-17T15:58:00;27.70;;;21.42;;
13171;SDS011;6651;53.200;10.432;2022-12-17T16:00:26;25.03;;;20.63;;
13171;SDS011;6651;53.200;10.432;2022-12-17T16:02:52;28.30;;;22.10;;
13171;SDS011;6651;53.200;10.432;2022-12-17T16:05:17;25.60;;;22.08;;
13171;SDS011;6651;53.200;10.432;2022-12-17T16:07:44;25.85;;;21.60;;
13171;SDS011;6651;53.200;10.432;2022-12-17T16:10:11;26.23;;;20.85;;
13171;SDS011;6651;53.200;10.432;2022-12-17T16:12:37;26.52;;;22.65;;
13171;SDS011;6651;53.200;10.432;2022-12-17T16:15:06;27.23;;;21.92;;
13171;SDS011;6651;53.200;10.432;2022-12-17T16:17:33;27.13;;;22.02;;
13171;SDS011;6651;53.200;10.432;2022-12-17T16:19:59;25.52;;;21.63;;
13171;SDS011;6651;53.200;10.432;2022-12-17T16:22:25;26.00;;;22.13;;
13171;SDS011;6651;53.200;10.432;2022-12-17T16:24:51;26.00;;;21.02;;
13171;SDS011;6651;53.200;10.432;2022-12-17T16:27:17;25.38;;;20.65;;
13171;SDS011;6651;53.200;10.432;2022-12-17T16:29:43;26.55;;;20.67;;
13171;SDS011;6651;53.200;10.432;2022-12-17T16:32:12;28.73;;;23.65;;
13171;SDS011;6651;53.200;10.432;2022-12-17T16:34:38;26.60;;;22.15;;
13171;SDS011;6651;53.200;10.432;2022-12-17T16:37:04;26.83;;;21.70;;
13171;SDS011;6651;53.200;10.432;2022-12-17T16:39:30;25.60;;;20.92;;
13171;SDS011;6651;53.200;10.432;2022-12-17T16:41:56;26.48;;;20.25;;
13171;SDS011;6651;53.200;10.432;2022-12-17T16:44:22;25.08;;;20.02;;
13171;SDS011;6651;53.200;10.432;2022-12-17T16:46:48;27.10;;;19.90;;
13171;SDS011;6651;53.200;10.432;2022-12-17T16:49:15;37.33;;;23.90;;
13171;SDS011;6651;53.200;10.432;2022-12-17T16:51:42;28.10;;;21.40;;
13171;SDS011;6651;53.200;10.432;2022-12-17T16:54:13;25.70;;;19.00;;
13171;SDS011;6651;53.200;10.432;2022-12-17T16:56:42;25.15;;;18.55;;
13171;SDS011;6651;53.200;10.432;2022-12-17T16:59:09;22.42;;;17.92;;
13171;SDS011;6651;53.200;10.432;2022-12-17T17:01:36;24.05;;;17.98;;
13171;SDS011;6651;53.200;10.432;2022-12-17T17:04:04;21.52;;;17.05;;
13171;SDS011;6651;53.200;10.432;2022-12-17T17:06:30;20.50;;;16.08;;
13171;SDS011;6651;53.200;10.432;2022-12-17T17:08:57;21.10;;;16.88;;
13171;SDS011;6651;53.200;10.432;2022-12-17T17:11:23;24.27;;;18.60;;
13171;SDS011;6651;53.200;10.432;2022-12-17T17:13:50;21.27;;;17.45;;
13171;SDS011;6651;53.200;10.432;2022-12-17T17:16:18;24.80;;;17.77;;
13171;SDS011;6651;53.200;10.432;2022-12-17T17:18:46;22.48;;;16.52;;
13171;SDS011;6651;53.200;10.432;2022-12-17T17:23:47;21.35;;;16.40;;
13171;SDS011;6651;53.200;10.432;2022-12-17T17:26:14;20.25;;;16.33;;
13171;SDS011;6651;53.200;10.432;2022-12-17T17:28:40;19.70;;;15.13;;
13171;SDS011;6651;53.200;10.432;2022-12-17T17:31:07;20.63;;;16.90;;
13171;SDS011;6651;53.200;10.432;2022-12-17T17:33:36;20.27;;;16.10;;
13171;SDS011;6651;53.200;10.432;2022-12-17T17:38:39;21.52;;;16.80;;
13171;SDS011;6651;53.200;10.432;2022-12-17T17:41:06;20.67;;;16.15;;